sensor_id;sensor_type;location;lat;lon;timestamp;P1;durP1;ratioP1;P2;durP2;ratioP2
61743;SDS011;48718;54.994;73.352;2022-07-26T00:01:26;11.85;;;6.57;;
61743;SDS011;48718;54.994;73.352;2022-07-26T00:03:52;9.00;;;6.60;;
61743;SDS011;48718;54.994;73.352;2022-07-26T00:06:20;8.50;;;6.30;;
61743;SDS011;48718;54.994;73.352;2022-07-26T00:08:47;7.53;;;6.72;;
61743;SDS011;48718;54.994;73.352;2022-07-26T00:11:14;8.13;;;6.53;;
61743;SDS011;48718;54.994;73.352;2022-07-26T00:13:41;8.15;;;6.78;;
61743;SDS011;48718;54.994;73.352;2022-07-26T00:16:08;8.30;;;6.47;;
61743;SDS011;48718;54.994;73.352;2022-07-26T00:18:35;7.95;;;6.57;;
61743;SDS011;48718;54.994;73.352;2022-07-26T00:21:02;7.03;;;5.82;;
61743;SDS011;48718;54.994;73.352;2022-07-26T00:23:30;7.68;;;6.72;;
61743;SDS011;48718;54.994;73.352;2022-07-26T00:25:57;10.48;;;6.40;;
61743;SDS011;48718;54.994;73.352;2022-07-26T00:28:24;7.32;;;6.63;;
61743;SDS011;48718;54.994;73.352;2022-07-26T00:30:50;8.93;;;6.63;;
61743;SDS011;48718;54.994;73.352;2022-07-26T00:33:17;9.77;;;6.68;;
61743;SDS011;48718;54.994;73.352;2022-07-26T00:35:43;8.60;;;6.68;;
61743;SDS011;48718;54.994;73.352;2022-07-26T00:38:10;9.55;;;6.70;;
61743;SDS011;48718;54.994;73.352;2022-07-26T00:40:37;9.07;;;6.68;;
61743;SDS011;48718;54.994;73.352;2022-07-26T00:43:03;7.60;;;6.80;;
61743;SDS011;48718;54.994;73.352;2022-07-26T00:45:30;7.38;;;6.68;;
61743;SDS011;48718;54.994;73.352;2022-07-26T00:47:57;7.28;;;6.50;;
61743;SDS011;48718;54.994;73.352;2022-07-26T00:50:23;7.63;;;6.68;;
61743;SDS011;48718;54.994;73.352;2022-07-26T00:52:50;8.70;;;6.93;;
61743;SDS011;48718;54.994;73.352;2022-07-26T00:55:17;9.35;;;7.13;;
61743;SDS011;48718;54.994;73.352;2022-07-26T00:57:44;8.07;;;7.00;;
61743;SDS011;48718;54.994;73.352;2022-07-26T01:00:15;8.93;;;6.47;;
61743;SDS011;48718;54.994;73.352;2022-07-26T01:02:43;7.50;;;6.70;;
61743;SDS011;48718;54.994;73.352;2022-07-26T01:05:10;7.95;;;6.32;;
61743;SDS011;48718;54.994;73.352;2022-07-26T01:07:38;8.98;;;6.97;;
61743;SDS011;48718;54.994;73.352;2022-07-26T01:10:06;11.05;;;6.70;;
61743;SDS011;48718;54.994;73.352;2022-07-26T01:12:37;11.63;;;6.78;;
61743;SDS011;48718;54.994;73.352;2022-07-26T01:15:04;9.75;;;7.80;;
61743;SDS011;48718;54.994;73.352;2022-07-26T01:17:31;12.05;;;7.45;;
61743;SDS011;48718;54.994;73.352;2022-07-26T01:19:58;10.50;;;6.03;;
61743;SDS011;48718;54.994;73.352;2022-07-26T01:22:25;10.75;;;6.82;;
61743;SDS011;48718;54.994;73.352;2022-07-26T01:24:51;16.67;;;6.88;;
61743;SDS011;48718;54.994;73.352;2022-07-26T01:27:18;8.25;;;6.70;;
61743;SDS011;48718;54.994;73.352;2022-07-26T01:29:45;9.38;;;6.60;;
61743;SDS011;48718;54.994;73.352;2022-07-26T01:32:12;11.18;;;6.90;;
61743;SDS011;48718;54.994;73.352;2022-07-26T01:34:39;7.45;;;6.70;;
61743;SDS011;48718;54.994;73.352;2022-07-26T01:37:06;9.85;;;7.18;;
61743;SDS011;48718;54.994;73.352;2022-07-26T01:39:32;11.18;;;7.47;;
61743;SDS011;48718;54.994;73.352;2022-07-26T01:41:59;10.95;;;6.95;;
61743;SDS011;48718;54.994;73.352;2022-07-26T01:44:26;11.93;;;6.53;;
61743;SDS011;48718;54.994;73.352;2022-07-26T01:46:58;8.38;;;7.00;;
61743;SDS011;48718;54.994;73.352;2022-07-26T01:49:25;15.07;;;7.70;;
61743;SDS011;48718;54.994;73.352;2022-07-26T01:51:51;13.55;;;7.60;;
61743;SDS011;48718;54.994;73.352;2022-07-26T01:54:18;11.82;;;8.88;;
61743;SDS011;48718;54.994;73.352;2022-07-26T01:56:45;11.45;;;6.97;;
61743;SDS011;48718;54.994;73.352;2022-07-26T01:59:11;10.43;;;7.47;;
61743;SDS011;48718;54.994;73.352;2022-07-26T02:01:39;10.23;;;6.65;;
61743;SDS011;48718;54.994;73.352;2022-07-26T02:04:06;13.88;;;7.07;;
61743;SDS011;48718;54.994;73.352;2022-07-26T02:06:53;10.98;;;7.85;;
61743;SDS011;48718;54.994;73.352;2022-07-26T02:09:20;13.25;;;7.53;;
61743;SDS011;48718;54.994;73.352;2022-07-26T02:11:46;9.68;;;6.93;;
61743;SDS011;48718;54.994;73.352;2022-07-26T02:14:14;10.27;;;7.95;;
61743;SDS011;48718;54.994;73.352;2022-07-26T02:16:40;11.98;;;7.13;;
61743;SDS011;48718;54.994;73.352;2022-07-26T02:19:08;9.80;;;7.20;;
61743;SDS011;48718;54.994;73.352;2022-07-26T02:21:34;8.07;;;7.25;;
61743;SDS011;48718;54.994;73.352;2022-07-26T02:24:01;16.40;;;7.63;;
61743;SDS011;48718;54.994;73.352;2022-07-26T02:26:28;13.80;;;7.45;;
61743;SDS011;48718;54.994;73.352;2022-07-26T02:28:55;13.27;;;7.50;;
61743;SDS011;48718;54.994;73.352;2022-07-26T02:31:21;8.90;;;6.93;;
61743;SDS011;48718;54.994;73.352;2022-07-26T02:33:48;11.25;;;7.88;;
61743;SDS011;48718;54.994;73.352;2022-07-26T02:36:14;12.02;;;8.60;;
61743;SDS011;48718;54.994;73.352;2022-07-26T02:38:41;9.27;;;7.28;;
61743;SDS011;48718;54.994;73.352;2022-07-26T02:41:07;11.38;;;9.25;;
61743;SDS011;48718;54.994;73.352;2022-07-26T02:43:34;10.02;;;8.35;;
61743;SDS011;48718;54.994;73.352;2022-07-26T02:46:01;9.77;;;7.75;;
61743;SDS011;48718;54.994;73.352;2022-07-26T02:48:28;11.40;;;8.13;;
61743;SDS011;48718;54.994;73.352;2022-07-26T02:50:55;10.02;;;8.02;;
61743;SDS011;48718;54.994;73.352;2022-07-26T02:53:22;16.60;;;9.10;;
61743;SDS011;48718;54.994;73.352;2022-07-26T02:55:49;12.35;;;7.90;;
61743;SDS011;48718;54.994;73.352;2022-07-26T02:58:20;13.63;;;8.88;;
61743;SDS011;48718;54.994;73.352;2022-07-26T03:00:47;10.60;;;7.97;;
61743;SDS011;48718;54.994;73.352;2022-07-26T03:03:17;12.95;;;7.45;;
61743;SDS011;48718;54.994;73.352;2022-07-26T03:05:49;11.75;;;8.32;;
61743;SDS011;48718;54.994;73.352;2022-07-26T03:08:25;9.35;;;7.75;;
61743;SDS011;48718;54.994;73.352;2022-07-26T03:10:52;10.05;;;7.32;;
61743;SDS011;48718;54.994;73.352;2022-07-26T03:13:19;10.77;;;6.88;;
61743;SDS011;48718;54.994;73.352;2022-07-26T03:15:45;8.52;;;7.60;;
61743;SDS011;48718;54.994;73.352;2022-07-26T03:18:12;10.82;;;8.38;;
61743;SDS011;48718;54.994;73.352;2022-07-26T03:20:39;10.68;;;7.43;;
61743;SDS011;48718;54.994;73.352;2022-07-26T03:23:09;11.00;;;8.50;;
61743;SDS011;48718;54.994;73.352;2022-07-26T03:25:36;9.18;;;7.50;;
61743;SDS011;48718;54.994;73.352;2022-07-26T03:28:02;11.57;;;8.43;;
61743;SDS011;48718;54.994;73.352;2022-07-26T03:30:29;12.60;;;8.95;;
61743;SDS011;48718;54.994;73.352;2022-07-26T03:32:56;10.65;;;8.20;;
61743;SDS011;48718;54.994;73.352;2022-07-26T03:35:22;13.43;;;8.63;;
61743;SDS011;48718;54.994;73.352;2022-07-26T03:37:54;8.25;;;7.47;;
61743;SDS011;48718;54.994;73.352;2022-07-26T03:40:24;10.80;;;8.27;;
61743;SDS011;48718;54.994;73.352;2022-07-26T03:42:51;11.27;;;8.77;;
61743;SDS011;48718;54.994;73.352;2022-07-26T03:45:18;9.43;;;8.52;;
61743;SDS011;48718;54.994;73.352;2022-07-26T03:47:44;10.98;;;9.05;;
61743;SDS011;48718;54.994;73.352;2022-07-26T03:50:11;13.02;;;8.38;;
61743;SDS011;48718;54.994;73.352;2022-07-26T03:52:39;11.23;;;8.45;;
61743;SDS011;48718;54.994;73.352;2022-07-26T03:55:16;9.73;;;8.50;;
61743;SDS011;48718;54.994;73.352;2022-07-26T03:58:11;11.02;;;8.45;;
61743;SDS011;48718;54.994;73.352;2022-07-26T04:00:37;12.65;;;8.05;;
61743;SDS011;48718;54.994;73.352;2022-07-26T04:03:06;14.18;;;8.98;;
61743;SDS011;48718;54.994;73.352;2022-07-26T04:05:33;13.85;;;8.65;;
61743;SDS011;48718;54.994;73.352;2022-07-26T04:07:59;11.25;;;8.75;;
61743;SDS011;48718;54.994;73.352;2022-07-26T04:10:26;13.40;;;9.30;;
61743;SDS011;48718;54.994;73.352;2022-07-26T04:12:53;16.35;;;8.50;;
61743;SDS011;48718;54.994;73.352;2022-07-26T04:15:19;12.20;;;8.95;;
61743;SDS011;48718;54.994;73.352;2022-07-26T04:17:46;12.18;;;9.25;;
61743;SDS011;48718;54.994;73.352;2022-07-26T04:20:18;11.43;;;8.95;;
61743;SDS011;48718;54.994;73.352;2022-07-26T04:22:45;9.88;;;7.65;;
61743;SDS011;48718;54.994;73.352;2022-07-26T04:25:12;10.25;;;8.93;;
61743;SDS011;48718;54.994;73.352;2022-07-26T04:27:38;11.27;;;9.60;;
61743;SDS011;48718;54.994;73.352;2022-07-26T04:30:05;12.85;;;8.77;;
61743;SDS011;48718;54.994;73.352;2022-07-26T04:32:32;12.95;;;9.85;;
61743;SDS011;48718;54.994;73.352;2022-07-26T04:34:59;15.43;;;9.38;;
61743;SDS011;48718;54.994;73.352;2022-07-26T04:37:25;13.35;;;8.80;;
61743;SDS011;48718;54.994;73.352;2022-07-26T04:39:57;13.82;;;9.15;;
61743;SDS011;48718;54.994;73.352;2022-07-26T04:42:24;13.23;;;9.38;;
61743;SDS011;48718;54.994;73.352;2022-07-26T04:44:50;12.23;;;9.55;;
61743;SDS011;48718;54.994;73.352;2022-07-26T04:47:17;10.40;;;9.32;;
61743;SDS011;48718;54.994;73.352;2022-07-26T04:49:43;14.13;;;9.45;;
61743;SDS011;48718;54.994;73.352;2022-07-26T04:52:10;11.32;;;10.13;;
61743;SDS011;48718;54.994;73.352;2022-07-26T04:54:40;10.73;;;9.45;;
61743;SDS011;48718;54.994;73.352;2022-07-26T04:57:11;10.57;;;9.02;;
61743;SDS011;48718;54.994;73.352;2022-07-26T04:59:38;13.07;;;8.80;;
61743;SDS011;48718;54.994;73.352;2022-07-26T05:02:05;12.55;;;10.35;;
61743;SDS011;48718;54.994;73.352;2022-07-26T05:04:41;14.95;;;9.18;;
61743;SDS011;48718;54.994;73.352;2022-07-26T05:07:08;14.38;;;10.35;;
61743;SDS011;48718;54.994;73.352;2022-07-26T05:09:35;14.20;;;9.77;;
61743;SDS011;48718;54.994;73.352;2022-07-26T05:12:02;19.05;;;10.32;;
61743;SDS011;48718;54.994;73.352;2022-07-26T05:14:31;11.60;;;9.68;;
61743;SDS011;48718;54.994;73.352;2022-07-26T05:16:58;12.38;;;9.98;;
61743;SDS011;48718;54.994;73.352;2022-07-26T05:19:25;16.52;;;11.05;;
61743;SDS011;48718;54.994;73.352;2022-07-26T05:21:51;14.10;;;9.70;;
61743;SDS011;48718;54.994;73.352;2022-07-26T05:24:18;13.55;;;10.40;;
61743;SDS011;48718;54.994;73.352;2022-07-26T05:26:44;12.75;;;10.50;;
61743;SDS011;48718;54.994;73.352;2022-07-26T05:29:11;11.63;;;9.70;;
61743;SDS011;48718;54.994;73.352;2022-07-26T05:31:38;20.48;;;9.98;;
61743;SDS011;48718;54.994;73.352;2022-07-26T05:34:04;12.95;;;9.02;;
61743;SDS011;48718;54.994;73.352;2022-07-26T05:36:31;11.05;;;9.88;;
61743;SDS011;48718;54.994;73.352;2022-07-26T05:38:58;13.25;;;10.15;;
61743;SDS011;48718;54.994;73.352;2022-07-26T05:41:24;14.18;;;10.43;;
61743;SDS011;48718;54.994;73.352;2022-07-26T05:43:53;11.18;;;9.43;;
61743;SDS011;48718;54.994;73.352;2022-07-26T05:46:19;10.70;;;9.20;;
61743;SDS011;48718;54.994;73.352;2022-07-26T05:48:46;10.18;;;9.13;;
61743;SDS011;48718;54.994;73.352;2022-07-26T05:51:13;10.55;;;9.30;;
61743;SDS011;48718;54.994;73.352;2022-07-26T05:53:40;10.77;;;9.77;;
61743;SDS011;48718;54.994;73.352;2022-07-26T05:56:07;12.55;;;9.93;;
61743;SDS011;48718;54.994;73.352;2022-07-26T05:58:36;11.48;;;9.55;;
61743;SDS011;48718;54.994;73.352;2022-07-26T06:01:03;11.85;;;10.52;;
61743;SDS011;48718;54.994;73.352;2022-07-26T06:03:29;10.73;;;8.88;;
61743;SDS011;48718;54.994;73.352;2022-07-26T06:05:57;9.38;;;8.45;;
61743;SDS011;48718;54.994;73.352;2022-07-26T06:08:29;11.23;;;9.98;;
61743;SDS011;48718;54.994;73.352;2022-07-26T06:10:55;10.23;;;8.60;;
61743;SDS011;48718;54.994;73.352;2022-07-26T06:13:22;9.57;;;8.52;;
61743;SDS011;48718;54.994;73.352;2022-07-26T06:15:54;9.45;;;8.25;;
61743;SDS011;48718;54.994;73.352;2022-07-26T06:18:25;9.27;;;8.40;;
61743;SDS011;48718;54.994;73.352;2022-07-26T06:20:52;13.13;;;9.68;;
61743;SDS011;48718;54.994;73.352;2022-07-26T06:23:18;11.65;;;9.25;;
61743;SDS011;48718;54.994;73.352;2022-07-26T06:25:45;10.27;;;9.35;;
61743;SDS011;48718;54.994;73.352;2022-07-26T06:28:11;10.32;;;9.00;;
61743;SDS011;48718;54.994;73.352;2022-07-26T06:30:38;10.15;;;9.02;;
61743;SDS011;48718;54.994;73.352;2022-07-26T06:33:05;10.95;;;9.82;;
61743;SDS011;48718;54.994;73.352;2022-07-26T06:35:32;11.13;;;8.82;;
61743;SDS011;48718;54.994;73.352;2022-07-26T06:38:02;9.75;;;8.65;;
61743;SDS011;48718;54.994;73.352;2022-07-26T06:40:29;9.95;;;8.95;;
61743;SDS011;48718;54.994;73.352;2022-07-26T06:43:03;10.48;;;9.45;;
61743;SDS011;48718;54.994;73.352;2022-07-26T06:45:30;10.63;;;8.93;;
61743;SDS011;48718;54.994;73.352;2022-07-26T06:47:57;10.07;;;9.10;;
61743;SDS011;48718;54.994;73.352;2022-07-26T06:50:24;9.70;;;8.82;;
61743;SDS011;48718;54.994;73.352;2022-07-26T06:52:51;9.35;;;8.48;;
61743;SDS011;48718;54.994;73.352;2022-07-26T06:55:17;11.50;;;8.55;;
61743;SDS011;48718;54.994;73.352;2022-07-26T06:57:44;8.82;;;8.02;;
61743;SDS011;48718;54.994;73.352;2022-07-26T07:00:11;11.18;;;8.20;;
61743;SDS011;48718;54.994;73.352;2022-07-26T07:02:38;9.88;;;7.88;;
61743;SDS011;48718;54.994;73.352;2022-07-26T07:05:05;9.25;;;8.30;;
61743;SDS011;48718;54.994;73.352;2022-07-26T07:07:32;8.57;;;7.78;;
61743;SDS011;48718;54.994;73.352;2022-07-26T07:10:02;8.93;;;8.07;;
61743;SDS011;48718;54.994;73.352;2022-07-26T07:12:29;8.90;;;8.02;;
61743;SDS011;48718;54.994;73.352;2022-07-26T07:14:56;8.95;;;7.60;;
61743;SDS011;48718;54.994;73.352;2022-07-26T07:17:23;8.77;;;7.95;;
61743;SDS011;48718;54.994;73.352;2022-07-26T07:19:49;8.65;;;7.68;;
61743;SDS011;48718;54.994;73.352;2022-07-26T07:22:16;10.40;;;7.50;;
61743;SDS011;48718;54.994;73.352;2022-07-26T07:24:42;9.02;;;8.13;;
61743;SDS011;48718;54.994;73.352;2022-07-26T07:27:09;8.20;;;7.35;;
61743;SDS011;48718;54.994;73.352;2022-07-26T07:29:36;8.77;;;7.93;;
61743;SDS011;48718;54.994;73.352;2022-07-26T07:32:05;8.18;;;7.45;;
61743;SDS011;48718;54.994;73.352;2022-07-26T07:34:31;9.13;;;8.23;;
61743;SDS011;48718;54.994;73.352;2022-07-26T07:36:58;8.48;;;7.65;;
61743;SDS011;48718;54.994;73.352;2022-07-26T07:39:27;8.40;;;7.60;;
61743;SDS011;48718;54.994;73.352;2022-07-26T07:41:54;8.45;;;7.63;;
61743;SDS011;48718;54.994;73.352;2022-07-26T07:44:21;8.93;;;8.13;;
61743;SDS011;48718;54.994;73.352;2022-07-26T07:46:48;10.57;;;8.35;;
61743;SDS011;48718;54.994;73.352;2022-07-26T07:49:14;8.15;;;7.30;;
61743;SDS011;48718;54.994;73.352;2022-07-26T07:51:41;9.60;;;8.20;;
61743;SDS011;48718;54.994;73.352;2022-07-26T07:54:07;10.07;;;8.63;;
61743;SDS011;48718;54.994;73.352;2022-07-26T07:56:38;8.70;;;7.80;;
61743;SDS011;48718;54.994;73.352;2022-07-26T07:59:05;14.90;;;8.60;;
61743;SDS011;48718;54.994;73.352;2022-07-26T08:01:32;11.70;;;7.80;;
61743;SDS011;48718;54.994;73.352;2022-07-26T08:04:04;9.50;;;8.50;;
61743;SDS011;48718;54.994;73.352;2022-07-26T08:06:31;8.95;;;8.05;;
61743;SDS011;48718;54.994;73.352;2022-07-26T08:08:57;9.07;;;8.18;;
61743;SDS011;48718;54.994;73.352;2022-07-26T08:11:24;8.10;;;7.32;;
61743;SDS011;48718;54.994;73.352;2022-07-26T08:13:51;10.25;;;8.10;;
61743;SDS011;48718;54.994;73.352;2022-07-26T08:16:18;9.32;;;8.40;;
61743;SDS011;48718;54.994;73.352;2022-07-26T08:18:44;8.27;;;7.55;;
61743;SDS011;48718;54.994;73.352;2022-07-26T08:21:11;7.95;;;7.22;;
61743;SDS011;48718;54.994;73.352;2022-07-26T08:23:39;7.53;;;6.82;;
61743;SDS011;48718;54.994;73.352;2022-07-26T08:26:05;8.88;;;7.35;;
61743;SDS011;48718;54.994;73.352;2022-07-26T08:28:32;8.40;;;7.60;;
61743;SDS011;48718;54.994;73.352;2022-07-26T08:31:00;8.23;;;7.47;;
61743;SDS011;48718;54.994;73.352;2022-07-26T08:33:26;7.70;;;6.90;;
61743;SDS011;48718;54.994;73.352;2022-07-26T08:35:53;10.25;;;7.50;;
61743;SDS011;48718;54.994;73.352;2022-07-26T08:38:20;8.43;;;7.63;;
61743;SDS011;48718;54.994;73.352;2022-07-26T08:40:46;7.75;;;6.80;;
61743;SDS011;48718;54.994;73.352;2022-07-26T08:43:14;8.13;;;7.32;;
61743;SDS011;48718;54.994;73.352;2022-07-26T08:45:41;7.63;;;6.55;;
61743;SDS011;48718;54.994;73.352;2022-07-26T08:48:20;7.43;;;6.80;;
61743;SDS011;48718;54.994;73.352;2022-07-26T08:50:47;7.53;;;6.82;;
61743;SDS011;48718;54.994;73.352;2022-07-26T08:53:14;8.52;;;7.20;;
61743;SDS011;48718;54.994;73.352;2022-07-26T08:55:41;7.72;;;6.93;;
61743;SDS011;48718;54.994;73.352;2022-07-26T08:58:08;9.05;;;6.85;;
61743;SDS011;48718;54.994;73.352;2022-07-26T09:00:34;7.18;;;6.47;;
61743;SDS011;48718;54.994;73.352;2022-07-26T09:03:02;7.88;;;7.18;;
61743;SDS011;48718;54.994;73.352;2022-07-26T09:05:33;7.78;;;7.07;;
61743;SDS011;48718;54.994;73.352;2022-07-26T09:08:27;9.07;;;7.00;;
61743;SDS011;48718;54.994;73.352;2022-07-26T09:10:54;7.85;;;7.05;;
61743;SDS011;48718;54.994;73.352;2022-07-26T09:13:21;9.25;;;7.97;;
61743;SDS011;48718;54.994;73.352;2022-07-26T09:16:09;7.25;;;6.22;;
61743;SDS011;48718;54.994;73.352;2022-07-26T09:18:36;7.63;;;6.80;;
61743;SDS011;48718;54.994;73.352;2022-07-26T09:21:03;8.25;;;7.53;;
61743;SDS011;48718;54.994;73.352;2022-07-26T09:23:39;10.02;;;7.20;;
61743;SDS011;48718;54.994;73.352;2022-07-26T09:26:06;7.43;;;6.72;;
61743;SDS011;48718;54.994;73.352;2022-07-26T09:28:33;9.10;;;7.05;;
61743;SDS011;48718;54.994;73.352;2022-07-26T09:31:03;10.05;;;6.78;;
61743;SDS011;48718;54.994;73.352;2022-07-26T09:33:43;7.35;;;6.65;;
61743;SDS011;48718;54.994;73.352;2022-07-26T09:36:11;10.60;;;7.07;;
61743;SDS011;48718;54.994;73.352;2022-07-26T09:41:24;7.15;;;6.50;;
61743;SDS011;48718;54.994;73.352;2022-07-26T09:43:55;7.60;;;6.95;;
61743;SDS011;48718;54.994;73.352;2022-07-26T09:46:26;7.78;;;7.07;;
61743;SDS011;48718;54.994;73.352;2022-07-26T09:48:55;7.50;;;6.55;;
61743;SDS011;48718;54.994;73.352;2022-07-26T09:51:41;7.35;;;6.75;;
61743;SDS011;48718;54.994;73.352;2022-07-26T09:54:10;7.10;;;6.45;;
61743;SDS011;48718;54.994;73.352;2022-07-26T09:59:22;7.47;;;6.78;;
61743;SDS011;48718;54.994;73.352;2022-07-26T10:01:58;8.18;;;6.63;;
61743;SDS011;48718;54.994;73.352;2022-07-26T10:04:25;6.50;;;5.90;;
61743;SDS011;48718;54.994;73.352;2022-07-26T10:06:52;7.38;;;6.30;;
61743;SDS011;48718;54.994;73.352;2022-07-26T10:09:19;8.02;;;6.80;;
61743;SDS011;48718;54.994;73.352;2022-07-26T10:12:08;7.53;;;6.75;;
61743;SDS011;48718;54.994;73.352;2022-07-26T10:14:43;7.40;;;6.63;;
61743;SDS011;48718;54.994;73.352;2022-07-26T10:23:01;7.75;;;6.97;;
61743;SDS011;48718;54.994;73.352;2022-07-26T10:27:57;7.28;;;6.63;;
61743;SDS011;48718;54.994;73.352;2022-07-26T10:30:24;8.70;;;7.00;;
61743;SDS011;48718;54.994;73.352;2022-07-26T10:38:04;8.25;;;6.88;;
61743;SDS011;48718;54.994;73.352;2022-07-26T10:40:56;6.45;;;5.85;;
61743;SDS011;48718;54.994;73.352;2022-07-26T10:43:33;8.57;;;6.00;;
61743;SDS011;48718;54.994;73.352;2022-07-26T10:51:43;7.45;;;6.85;;
61743;SDS011;48718;54.994;73.352;2022-07-26T10:54:10;7.30;;;6.45;;
61743;SDS011;48718;54.994;73.352;2022-07-26T10:56:38;7.03;;;6.32;;
61743;SDS011;48718;54.994;73.352;2022-07-26T10:59:05;6.38;;;5.88;;
61743;SDS011;48718;54.994;73.352;2022-07-26T11:04:03;6.68;;;6.07;;
61743;SDS011;48718;54.994;73.352;2022-07-26T11:06:31;7.05;;;6.40;;
61743;SDS011;48718;54.994;73.352;2022-07-26T11:09:11;7.72;;;6.22;;
61743;SDS011;48718;54.994;73.352;2022-07-26T11:11:38;7.35;;;6.63;;
61743;SDS011;48718;54.994;73.352;2022-07-26T11:14:06;8.48;;;5.43;;
61743;SDS011;48718;54.994;73.352;2022-07-26T11:19:14;7.20;;;6.15;;
61743;SDS011;48718;54.994;73.352;2022-07-26T11:21:55;6.65;;;6.03;;
61743;SDS011;48718;54.994;73.352;2022-07-26T11:24:26;7.00;;;6.40;;
61743;SDS011;48718;54.994;73.352;2022-07-26T11:26:53;6.78;;;6.20;;
61743;SDS011;48718;54.994;73.352;2022-07-26T11:29:30;6.28;;;5.68;;
61743;SDS011;48718;54.994;73.352;2022-07-26T11:32:16;6.78;;;6.13;;
61743;SDS011;48718;54.994;73.352;2022-07-26T11:34:43;6.63;;;6.05;;
61743;SDS011;48718;54.994;73.352;2022-07-26T11:37:11;6.40;;;5.80;;
61743;SDS011;48718;54.994;73.352;2022-07-26T11:39:38;5.97;;;5.47;;
61743;SDS011;48718;54.994;73.352;2022-07-26T11:42:09;7.68;;;6.07;;
61743;SDS011;48718;54.994;73.352;2022-07-26T11:44:45;6.50;;;6.00;;
61743;SDS011;48718;54.994;73.352;2022-07-26T11:47:16;7.25;;;6.65;;
61743;SDS011;48718;54.994;73.352;2022-07-26T11:49:47;6.35;;;5.85;;
61743;SDS011;48718;54.994;73.352;2022-07-26T11:52:14;6.57;;;5.97;;
61743;SDS011;48718;54.994;73.352;2022-07-26T11:54:45;6.43;;;5.93;;
61743;SDS011;48718;54.994;73.352;2022-07-26T11:57:14;6.93;;;6.32;;
61743;SDS011;48718;54.994;73.352;2022-07-26T11:59:41;6.35;;;5.45;;
61743;SDS011;48718;54.994;73.352;2022-07-26T12:02:09;6.53;;;5.63;;
61743;SDS011;48718;54.994;73.352;2022-07-26T12:04:37;6.30;;;5.70;;
61743;SDS011;48718;54.994;73.352;2022-07-26T12:07:09;6.32;;;5.82;;
61743;SDS011;48718;54.994;73.352;2022-07-26T12:12:09;6.13;;;5.57;;
61743;SDS011;48718;54.994;73.352;2022-07-26T12:14:58;6.93;;;6.30;;
61743;SDS011;48718;54.994;73.352;2022-07-26T12:17:27;6.50;;;5.90;;
61743;SDS011;48718;54.994;73.352;2022-07-26T12:19:54;6.68;;;6.05;;
61743;SDS011;48718;54.994;73.352;2022-07-26T12:22:23;6.22;;;5.75;;
61743;SDS011;48718;54.994;73.352;2022-07-26T12:27:23;6.40;;;5.80;;
61743;SDS011;48718;54.994;73.352;2022-07-26T12:29:54;6.55;;;6.00;;
61743;SDS011;48718;54.994;73.352;2022-07-26T12:32:39;7.47;;;5.80;;
61743;SDS011;48718;54.994;73.352;2022-07-26T12:35:26;6.68;;;6.07;;
61743;SDS011;48718;54.994;73.352;2022-07-26T12:37:57;6.90;;;6.20;;
61743;SDS011;48718;54.994;73.352;2022-07-26T12:40:28;10.43;;;6.20;;
61743;SDS011;48718;54.994;73.352;2022-07-26T12:43:04;6.40;;;5.82;;
61743;SDS011;48718;54.994;73.352;2022-07-26T12:45:34;7.97;;;7.15;;
61743;SDS011;48718;54.994;73.352;2022-07-26T12:48:02;18.15;;;7.38;;
61743;SDS011;48718;54.994;73.352;2022-07-26T12:50:35;16.35;;;7.85;;
61743;SDS011;48718;54.994;73.352;2022-07-26T12:53:02;26.48;;;8.15;;
61743;SDS011;48718;54.994;73.352;2022-07-26T12:55:34;16.15;;;7.30;;
61743;SDS011;48718;54.994;73.352;2022-07-26T12:58:01;12.13;;;6.80;;
61743;SDS011;48718;54.994;73.352;2022-07-26T13:00:28;9.65;;;7.53;;
61743;SDS011;48718;54.994;73.352;2022-07-26T13:02:54;7.88;;;6.90;;
61743;SDS011;48718;54.994;73.352;2022-07-26T13:05:21;8.93;;;7.45;;
61743;SDS011;48718;54.994;73.352;2022-07-26T13:07:48;11.18;;;6.95;;
61743;SDS011;48718;54.994;73.352;2022-07-26T13:10:16;11.18;;;6.93;;
61743;SDS011;48718;54.994;73.352;2022-07-26T13:12:43;11.48;;;7.38;;
61743;SDS011;48718;54.994;73.352;2022-07-26T13:15:09;11.75;;;7.32;;
61743;SDS011;48718;54.994;73.352;2022-07-26T13:17:36;8.25;;;6.22;;
61743;SDS011;48718;54.994;73.352;2022-07-26T13:20:08;19.55;;;7.68;;
61743;SDS011;48718;54.994;73.352;2022-07-26T13:22:35;10.73;;;7.85;;
61743;SDS011;48718;54.994;73.352;2022-07-26T13:25:01;14.05;;;7.10;;
61743;SDS011;48718;54.994;73.352;2022-07-26T13:27:28;10.00;;;7.32;;
61743;SDS011;48718;54.994;73.352;2022-07-26T13:29:55;10.48;;;7.40;;
61743;SDS011;48718;54.994;73.352;2022-07-26T13:32:21;9.80;;;6.68;;
61743;SDS011;48718;54.994;73.352;2022-07-26T13:34:48;9.07;;;7.30;;
61743;SDS011;48718;54.994;73.352;2022-07-26T13:37:14;12.93;;;8.75;;
61743;SDS011;48718;54.994;73.352;2022-07-26T13:39:42;12.70;;;7.72;;
61743;SDS011;48718;54.994;73.352;2022-07-26T13:42:08;16.00;;;7.07;;
61743;SDS011;48718;54.994;73.352;2022-07-26T13:44:36;9.73;;;7.38;;
61743;SDS011;48718;54.994;73.352;2022-07-26T13:47:02;17.42;;;7.55;;
61743;SDS011;48718;54.994;73.352;2022-07-26T13:49:29;8.60;;;6.93;;
61743;SDS011;48718;54.994;73.352;2022-07-26T13:51:56;15.77;;;7.88;;
61743;SDS011;48718;54.994;73.352;2022-07-26T13:54:29;16.17;;;7.43;;
61743;SDS011;48718;54.994;73.352;2022-07-26T13:56:58;12.82;;;6.93;;
61743;SDS011;48718;54.994;73.352;2022-07-26T13:59:30;11.15;;;7.55;;
61743;SDS011;48718;54.994;73.352;2022-07-26T14:01:57;13.45;;;6.85;;
61743;SDS011;48718;54.994;73.352;2022-07-26T14:04:25;15.63;;;7.07;;
61743;SDS011;48718;54.994;73.352;2022-07-26T14:06:55;10.35;;;6.65;;
61743;SDS011;48718;54.994;73.352;2022-07-26T14:09:26;9.57;;;6.75;;
61743;SDS011;48718;54.994;73.352;2022-07-26T14:11:53;11.18;;;7.53;;
61743;SDS011;48718;54.994;73.352;2022-07-26T14:14:19;16.65;;;8.35;;
61743;SDS011;48718;54.994;73.352;2022-07-26T14:16:46;12.20;;;7.55;;
61743;SDS011;48718;54.994;73.352;2022-07-26T14:19:12;10.40;;;7.35;;
61743;SDS011;48718;54.994;73.352;2022-07-26T14:21:39;8.25;;;7.32;;
61743;SDS011;48718;54.994;73.352;2022-07-26T14:24:05;10.98;;;7.68;;
61743;SDS011;48718;54.994;73.352;2022-07-26T14:26:34;9.00;;;7.07;;
61743;SDS011;48718;54.994;73.352;2022-07-26T14:29:06;7.90;;;6.60;;
61743;SDS011;48718;54.994;73.352;2022-07-26T14:31:33;12.27;;;6.88;;
61743;SDS011;48718;54.994;73.352;2022-07-26T14:33:59;12.27;;;7.65;;
61743;SDS011;48718;54.994;73.352;2022-07-26T14:36:26;11.65;;;7.00;;
61743;SDS011;48718;54.994;73.352;2022-07-26T14:38:55;16.35;;;7.68;;
61743;SDS011;48718;54.994;73.352;2022-07-26T14:41:26;17.80;;;7.22;;
61743;SDS011;48718;54.994;73.352;2022-07-26T14:43:52;19.00;;;8.27;;
61743;SDS011;48718;54.994;73.352;2022-07-26T14:46:25;10.77;;;7.63;;
61743;SDS011;48718;54.994;73.352;2022-07-26T14:48:53;13.85;;;7.50;;
61743;SDS011;48718;54.994;73.352;2022-07-26T14:51:19;15.18;;;7.57;;
61743;SDS011;48718;54.994;73.352;2022-07-26T14:53:46;12.70;;;8.27;;
61743;SDS011;48718;54.994;73.352;2022-07-26T14:56:23;11.13;;;7.45;;
61743;SDS011;48718;54.994;73.352;2022-07-26T14:58:49;15.25;;;8.13;;
61743;SDS011;48718;54.994;73.352;2022-07-26T15:01:21;13.68;;;7.20;;
61743;SDS011;48718;54.994;73.352;2022-07-26T15:03:48;12.90;;;8.02;;
61743;SDS011;48718;54.994;73.352;2022-07-26T15:06:15;16.08;;;7.38;;
61743;SDS011;48718;54.994;73.352;2022-07-26T15:08:44;14.45;;;7.82;;
61743;SDS011;48718;54.994;73.352;2022-07-26T15:11:11;15.27;;;7.88;;